createdAt,value
2018-04-06T00:00:26.376Z,80.10
2018-04-06T00:02:56.572Z,80.20
2018-04-06T00:05:26.411Z,80.20
2018-04-06T00:07:56.724Z,79.80
2018-04-06T00:10:26.744Z,79.80
2018-04-06T00:12:56.571Z,79.60
2018-04-06T00:15:26.390Z,79.50
2018-04-06T00:17:56.287Z,79.60
2018-04-06T00:20:26.225Z,79.50
2018-04-06T00:22:55.859Z,79.40
2018-04-06T00:25:25.754Z,80.00
2018-04-06T00:27:55.629Z,80.10
2018-04-06T00:30:25.473Z,80.30
2018-04-06T00:32:54.951Z,79.80
2018-04-06T00:35:25.237Z,79.70
2018-04-06T00:37:55.250Z,79.60
2018-04-06T00:40:25.061Z,79.50
2018-04-06T00:42:55.135Z,79.70
2018-04-06T00:45:25.427Z,79.60
2018-04-06T00:47:54.974Z,79.60
2018-04-06T00:50:24.772Z,79.80
2018-04-06T00:52:58.039Z,79.90
2018-04-06T00:55:27.870Z,79.90
2018-04-06T00:57:57.814Z,79.90
2018-04-06T01:00:27.629Z,80.00
2018-04-06T01:02:57.127Z,79.90
2018-04-06T01:05:27.074Z,80.00
2018-04-06T01:07:56.958Z,79.90
2018-04-06T01:10:26.822Z,80.20
2018-04-06T01:12:56.623Z,80.10
2018-04-06T01:15:26.501Z,80.10
2018-04-06T01:17:56.059Z,80.00
2018-04-06T01:20:25.925Z,80.10
2018-04-06T01:22:55.698Z,80.00
2018-04-06T01:25:25.538Z,79.90
2018-04-06T01:27:55.319Z,80.10
2018-04-06T01:30:25.561Z,80.30
2018-04-06T01:32:55.924Z,80.30
2018-04-06T01:35:25.882Z,80.30
2018-04-06T01:37:55.646Z,80.40
2018-04-06T01:40:25.538Z,80.30
2018-04-06T01:42:55.758Z,80.10
2018-04-06T01:45:26.001Z,80.30
2018-04-06T01:47:55.878Z,80.20
2018-04-06T01:50:25.875Z,80.30
2018-04-06T01:52:55.729Z,80.10
2018-04-06T01:55:25.781Z,80.10
2018-04-06T01:57:55.690Z,80.20
2018-04-06T02:00:25.571Z,80.10
2018-04-06T02:02:55.435Z,80.30
2018-04-06T02:05:24.916Z,80.10
2018-04-06T02:07:54.515Z,80.30
2018-04-06T02:10:24.097Z,80.70
2018-04-06T02:12:54.322Z,80.40
2018-04-06T02:15:24.142Z,80.40
2018-04-06T02:17:54.383Z,80.60
2018-04-06T02:20:24.209Z,80.60
2018-04-06T02:22:53.767Z,80.50
2018-04-06T02:25:23.669Z,80.80
2018-04-06T02:27:53.452Z,80.70
2018-04-06T02:30:23.273Z,80.60
2018-04-06T02:32:53.131Z,80.50
2018-04-06T02:35:22.897Z,80.50
2018-04-06T02:37:52.738Z,80.50
2018-04-06T02:40:23.007Z,80.30
2018-04-06T02:42:52.804Z,80.30
2018-04-06T02:45:22.998Z,80.40
2018-04-06T02:47:52.956Z,80.40
2018-04-06T02:50:22.802Z,80.40
2018-04-06T02:52:52.582Z,80.30
2018-04-06T02:55:22.419Z,80.10
2018-04-06T02:57:52.232Z,80.40
2018-04-06T03:00:22.085Z,80.40
2018-04-06T03:02:51.923Z,80.50
2018-04-06T03:05:21.746Z,80.60
2018-04-06T03:07:51.677Z,80.50
2018-04-06T03:10:22.218Z,80.70
2018-04-06T03:12:51.991Z,80.60
2018-04-06T03:15:22.238Z,80.50
2018-04-06T03:17:52.003Z,80.50
2018-04-06T03:20:21.893Z,80.60
2018-04-06T03:22:51.778Z,80.50
2018-04-06T03:25:21.638Z,80.60
2018-04-06T03:27:51.535Z,80.80
2018-04-06T03:30:21.363Z,80.70
2018-04-06T03:32:51.148Z,80.70
2018-04-06T03:35:26.587Z,80.70
2018-04-06T03:37:56.367Z,80.70
2018-04-06T03:40:26.170Z,80.60
2018-04-06T03:42:56.381Z,80.90
2018-04-06T03:45:26.162Z,80.80
2018-04-06T03:47:56.015Z,80.80
2018-04-06T03:50:25.838Z,80.80
2018-04-06T03:52:55.644Z,80.60
2018-04-06T03:55:25.798Z,80.60
2018-04-06T03:57:55.742Z,80.90
2018-04-06T04:00:25.534Z,80.90
2018-04-06T04:02:55.391Z,80.90
2018-04-06T04:05:25.173Z,80.90
2018-04-06T04:07:54.724Z,80.80
2018-04-06T04:10:26.678Z,80.90
2018-04-06T04:12:56.432Z,80.90
2018-04-06T04:15:26.001Z,81.00
2018-04-06T04:17:56.231Z,80.90
2018-04-06T04:20:26.066Z,81.00
2018-04-06T04:22:55.895Z,81.00
2018-04-06T04:25:25.755Z,81.00
2018-04-06T04:27:55.573Z,81.10
2018-04-06T04:30:25.396Z,81.00
2018-04-06T04:32:55.554Z,81.10
2018-04-06T04:35:25.364Z,81.10
2018-04-06T04:37:54.964Z,81.10
2018-04-06T04:40:24.798Z,80.90
2018-04-06T04:42:54.658Z,81.00
2018-04-06T04:45:24.578Z,81.10
2018-04-06T04:47:54.417Z,81.00
2018-04-06T04:50:24.192Z,81.20
2018-04-06T04:52:54.138Z,81.10
2018-04-06T04:55:23.919Z,81.00
2018-04-06T04:57:53.566Z,80.90
2018-04-06T05:00:23.535Z,81.20
2018-04-06T05:02:53.104Z,81.00
2018-04-06T05:05:22.875Z,81.20
2018-04-06T05:07:53.546Z,81.10
2018-04-06T05:10:23.073Z,80.90
2018-04-06T05:12:52.914Z,80.90
2018-04-06T05:15:22.710Z,80.90
2018-04-06T05:17:52.632Z,81.00
2018-04-06T05:20:22.438Z,81.10
2018-04-06T05:22:52.335Z,81.20
2018-04-06T05:25:22.178Z,81.10
2018-04-06T05:27:52.013Z,81.10
2018-04-06T05:30:21.791Z,81.10
2018-04-06T05:32:51.624Z,81.60
2018-04-06T05:35:21.451Z,81.70
2018-04-06T05:37:51.780Z,81.20
2018-04-06T05:40:22.034Z,81.20
2018-04-06T05:42:51.861Z,81.20
2018-04-06T05:45:21.721Z,81.40
2018-04-06T05:47:51.321Z,81.20
2018-04-06T05:50:21.154Z,81.20
2018-04-06T05:52:51.336Z,81.10
2018-04-06T05:55:21.183Z,81.00
2018-04-06T05:57:51.377Z,80.90
2018-04-06T06:00:21.264Z,80.90
2018-04-06T06:02:51.075Z,80.80
2018-04-06T06:05:20.886Z,80.80
2018-04-06T06:07:50.746Z,80.90
2018-04-06T06:10:20.539Z,80.90
2018-04-06T06:12:50.375Z,80.70
2018-04-06T06:15:20.649Z,81.10
2018-04-06T06:17:50.485Z,81.10
2018-04-06T06:20:20.255Z,81.10
2018-04-06T06:22:50.091Z,81.10
2018-04-06T06:25:19.707Z,81.60
2018-04-06T06:27:49.578Z,81.60
2018-04-06T06:30:19.398Z,81.40
2018-04-06T06:32:50.422Z,81.40
2018-04-06T06:35:20.319Z,81.30
2018-04-06T06:37:50.100Z,81.00
2018-04-06T06:40:19.955Z,81.40
2018-04-06T06:42:49.814Z,81.40
2018-04-06T06:45:19.658Z,81.90
2018-04-06T06:47:49.455Z,82.40
2018-04-06T06:50:30.710Z,82.40
2018-04-06T06:53:00.826Z,81.80
2018-04-06T06:55:32.870Z,82.40
2018-04-06T06:58:02.730Z,82.90
2018-04-06T07:00:32.592Z,82.40
2018-04-06T07:03:08.276Z,82.30
2018-04-06T07:05:40.223Z,82.30
2018-04-06T07:08:10.340Z,81.90
2018-04-06T07:10:40.130Z,81.10
2018-04-06T07:13:09.923Z,81.20
2018-04-06T07:15:39.498Z,81.10
2018-04-06T07:18:09.685Z,80.90
2018-04-06T07:20:39.552Z,80.80
2018-04-06T07:23:10.225Z,79.30
2018-04-06T07:25:40.023Z,80.40
2018-04-06T07:28:09.943Z,79.60
2018-04-06T07:30:40.205Z,78.60
2018-04-06T07:33:11.200Z,78.00
2018-04-06T07:35:41.068Z,78.10
2018-04-06T07:38:10.887Z,78.40
2018-04-06T07:40:40.691Z,78.10
2018-04-06T07:43:10.532Z,77.10
2018-04-06T07:45:40.398Z,77.20
2018-04-06T07:48:10.331Z,76.50
2018-04-06T07:50:40.159Z,75.90
2018-04-06T07:53:10.044Z,76.30
2018-04-06T07:55:40.230Z,75.10
2018-04-06T07:58:10.195Z,75.10
2018-04-06T08:00:40.190Z,74.60
2018-04-06T08:03:10.436Z,73.30
2018-04-06T08:05:40.220Z,73.40
2018-04-06T08:08:10.175Z,74.40
2018-04-06T08:10:39.716Z,73.90
2018-04-06T08:13:09.398Z,72.40
2018-04-06T08:15:39.213Z,73.30
2018-04-06T08:18:09.059Z,73.10
2018-04-06T08:20:39.038Z,72.30
2018-04-06T08:23:09.004Z,71.50
2018-04-06T08:25:38.782Z,70.80
2018-04-06T08:28:08.556Z,71.10
2018-04-06T08:30:38.470Z,70.70
2018-04-06T08:33:08.571Z,70.80
2018-04-06T08:35:38.433Z,69.80
2018-04-06T08:38:08.797Z,70.60
2018-04-06T08:40:38.665Z,68.80
2018-04-06T08:43:08.217Z,68.30
2018-04-06T08:45:38.143Z,69.60
2018-04-06T08:48:08.099Z,70.20
2018-04-06T08:50:37.696Z,70.10
2018-04-06T08:53:07.915Z,68.70
2018-04-06T08:55:37.701Z,67.40
2018-04-06T08:58:07.341Z,68.80
2018-04-06T09:00:37.642Z,67.60
2018-04-06T09:03:07.260Z,69.30
2018-04-06T09:05:36.841Z,67.00
2018-04-06T09:08:06.794Z,64.90
2018-04-06T09:10:38.707Z,64.90
2018-04-06T09:13:10.117Z,64.80
2018-04-06T09:15:39.438Z,65.10
2018-04-06T09:18:08.947Z,68.20
2018-04-06T09:20:38.544Z,67.40
2018-04-06T09:23:08.489Z,64.20
2018-04-06T09:25:39.382Z,60.80
2018-04-06T09:28:09.109Z,61.30
2018-04-06T09:30:39.299Z,62.30
2018-04-06T09:33:08.817Z,59.00
2018-04-06T09:35:38.343Z,57.90
2018-04-06T09:38:07.909Z,56.30
2018-04-06T09:40:37.433Z,60.40
2018-04-06T09:43:07.011Z,58.20
2018-04-06T09:45:36.841Z,54.70
2018-04-06T09:48:07.235Z,56.80
2018-04-06T09:50:36.887Z,55.70
2018-04-06T09:56:21.235Z,53.80
2018-04-06T09:58:51.527Z,54.40
2018-04-06T10:01:21.317Z,54.80
2018-04-06T10:03:50.887Z,54.70
2018-04-06T10:06:21.257Z,53.60
2018-04-06T10:08:51.215Z,54.10
2018-04-06T10:11:21.328Z,54.70
2018-04-06T10:13:51.352Z,54.70
2018-04-06T10:16:22.109Z,51.10
2018-04-06T10:18:51.663Z,51.10
2018-04-06T10:21:28.125Z,53.20
2018-04-06T10:23:57.801Z,51.70
2018-04-06T10:26:37.268Z,51.70
2018-04-06T10:29:09.110Z,51.20
2018-04-06T10:31:39.022Z,50.70
2018-04-06T10:34:11.178Z,52.90
2018-04-06T10:36:40.536Z,51.50
2018-04-06T10:39:09.753Z,52.60
2018-04-06T10:41:39.728Z,50.60
2018-04-06T10:44:09.333Z,50.60
2018-04-06T10:46:42.856Z,51.50
2018-04-06T10:49:27.510Z,50.30
2018-04-06T10:51:58.231Z,49.60
2018-04-06T10:54:27.852Z,50.70
2018-04-06T10:56:58.326Z,49.90
2018-04-06T10:59:27.895Z,48.90
2018-04-06T11:01:58.552Z,51.50
2018-04-06T11:04:28.417Z,50.20
2018-04-06T11:06:59.462Z,48.60
2018-04-06T11:09:28.966Z,47.90
2018-04-06T11:12:00.253Z,48.90
2018-04-06T11:14:30.781Z,48.10
2018-04-06T11:17:00.438Z,48.30
2018-04-06T11:19:30.169Z,48.50
2018-04-06T11:22:00.915Z,51.20
2018-04-06T11:24:30.710Z,49.20
2018-04-06T11:27:00.418Z,51.90
2018-04-06T11:29:29.899Z,49.80
2018-04-06T11:31:59.415Z,49.60
2018-04-06T11:34:29.095Z,49.10
2018-04-06T11:36:58.773Z,49.00
2018-04-06T11:39:28.298Z,48.10
2018-04-06T11:41:58.105Z,48.70
2018-04-06T11:44:28.084Z,48.40
2018-04-06T11:46:57.834Z,50.30
2018-04-06T11:49:27.729Z,49.80
2018-04-06T11:51:57.356Z,46.40
2018-04-06T11:54:27.882Z,48.10
2018-04-06T11:56:58.167Z,48.30
2018-04-06T11:59:27.725Z,47.40
2018-04-06T12:01:57.305Z,46.50
2018-04-06T12:04:28.719Z,46.60
2018-04-06T12:19:23.484Z,44.60
2018-04-06T12:21:53.307Z,46.40
2018-04-06T12:24:23.510Z,45.60
2018-04-06T12:26:53.139Z,48.50
2018-04-06T12:29:23.310Z,48.30
2018-04-06T12:31:53.069Z,46.00
2018-04-06T12:34:22.760Z,45.20
2018-04-06T12:36:52.367Z,45.30
2018-04-06T12:39:22.281Z,45.40
2018-04-06T12:41:51.875Z,45.70
2018-04-06T12:44:24.531Z,47.50
2018-04-06T12:46:55.379Z,47.50
2018-04-06T12:49:25.473Z,46.80
2018-04-06T12:51:55.419Z,48.40
2018-04-06T12:54:27.962Z,44.60
2018-04-06T12:57:00.905Z,44.60
2018-04-06T12:59:30.651Z,45.60
2018-04-06T13:02:00.864Z,46.80
2018-04-06T13:04:30.520Z,46.80
2018-04-06T13:07:00.618Z,46.30
2018-04-06T13:09:30.244Z,45.10
2018-04-06T13:11:59.789Z,45.00
2018-04-06T13:14:29.469Z,44.70
2018-04-06T13:17:01.712Z,44.40
2018-04-06T13:19:33.485Z,45.40
2018-04-06T13:22:09.709Z,45.00
2018-04-06T13:24:41.687Z,44.10
2018-04-06T13:27:11.163Z,44.90
2018-04-06T13:29:40.367Z,45.00
2018-04-06T13:32:11.619Z,43.80
2018-04-06T13:34:41.077Z,43.00
2018-04-06T13:37:10.513Z,43.80
2018-04-06T13:39:39.983Z,44.10
2018-04-06T13:42:09.411Z,44.90
2018-04-06T13:44:38.887Z,44.70
2018-04-06T13:47:08.759Z,44.30
2018-04-06T13:49:37.981Z,44.30
2018-04-06T13:52:07.441Z,45.40
2018-04-06T13:54:36.891Z,43.80
2018-04-06T13:57:06.170Z,44.30
2018-04-06T13:59:35.735Z,42.70
2018-04-06T14:02:06.182Z,43.80
2018-04-06T14:04:35.659Z,46.10
2018-04-06T14:07:05.094Z,43.10
2018-04-06T14:09:34.926Z,42.80
2018-04-06T14:12:04.829Z,42.50
2018-04-06T14:14:34.277Z,42.50
2018-04-06T14:17:04.131Z,42.20
2018-04-06T14:19:33.577Z,42.20
2018-04-06T14:22:03.134Z,42.30
2018-04-06T14:24:32.575Z,44.10
2018-04-06T14:27:02.026Z,42.20
2018-04-06T14:29:31.476Z,42.40
2018-04-06T14:32:00.901Z,40.90
2018-04-06T14:34:30.446Z,41.70
2018-04-06T14:37:00.299Z,40.50
2018-04-06T14:39:29.759Z,40.50
2018-04-06T14:41:59.233Z,40.60
2018-04-06T14:44:29.083Z,37.90
2018-04-06T14:47:00.203Z,37.90
2018-04-06T14:49:30.491Z,37.80
2018-04-06T14:51:59.920Z,37.80
2018-04-06T14:54:29.398Z,38.30
2018-04-06T14:56:58.853Z,37.90
2018-04-06T14:59:28.295Z,36.80
2018-04-06T15:02:02.026Z,36.50
2018-04-06T15:04:31.647Z,38.50
2018-04-06T15:07:01.114Z,37.80
2018-04-06T15:09:30.672Z,37.00
2018-04-06T15:12:01.103Z,36.60
2018-04-06T15:14:30.539Z,35.60
2018-04-06T15:17:00.003Z,35.80
2018-04-06T15:19:29.648Z,34.80
2018-04-06T15:22:02.528Z,35.70
2018-04-06T15:24:31.995Z,35.50
2018-04-06T15:27:04.991Z,34.40
2018-04-06T15:29:34.214Z,34.50
2018-04-06T15:32:03.638Z,36.40
2018-04-06T15:34:33.091Z,33.40
2018-04-06T15:37:02.937Z,34.10
2018-04-06T15:39:32.644Z,34.10
2018-04-06T15:42:02.528Z,34.50
2018-04-06T15:44:31.766Z,34.40
2018-04-06T15:47:02.183Z,34.20
2018-04-06T15:49:31.661Z,33.70
2018-04-06T15:52:02.257Z,34.10
2018-04-06T15:54:31.725Z,34.10
2018-04-06T16:00:16.038Z,35.80
2018-04-06T16:02:45.715Z,34.20
2018-04-06T16:08:15.227Z,33.30
2018-04-06T16:10:44.702Z,33.00
2018-04-06T16:13:21.909Z,33.80
2018-04-06T16:15:51.359Z,34.00
2018-04-06T16:18:21.037Z,35.20
2018-04-06T16:20:50.522Z,35.60
2018-04-06T16:23:19.975Z,34.20
2018-04-06T16:25:50.599Z,34.90
2018-04-06T16:28:21.459Z,34.90
2018-04-06T16:30:51.016Z,34.00
2018-04-06T16:33:41.396Z,35.80
2018-04-06T16:36:10.884Z,34.80
2018-04-06T16:38:42.412Z,34.00
2018-04-06T16:41:11.915Z,34.00
2018-04-06T16:43:42.134Z,36.70
2018-04-06T16:46:12.002Z,34.50
2018-04-06T16:48:48.897Z,34.50
2018-04-06T16:51:18.390Z,35.50
2018-04-06T16:53:48.477Z,34.60
2018-04-06T16:56:18.113Z,34.10
2018-04-06T16:58:47.663Z,35.70
2018-04-06T17:01:17.732Z,35.90
2018-04-06T17:03:48.180Z,35.90
2018-04-06T17:06:18.611Z,36.60
2018-04-06T17:09:08.351Z,37.00
2018-04-06T17:11:37.887Z,37.80
2018-04-06T17:14:07.940Z,37.40
2018-04-06T17:16:37.439Z,37.40
2018-04-06T17:19:12.876Z,39.30
2018-04-06T17:21:44.143Z,39.30
2018-04-06T17:24:18.768Z,41.80
2018-04-06T17:26:48.259Z,41.60
2018-04-06T17:29:19.998Z,44.50
2018-04-06T17:31:49.817Z,43.90
2018-04-06T17:34:19.669Z,45.20
2018-04-06T17:36:49.102Z,45.20
2018-04-06T17:39:22.668Z,45.50
2018-04-06T17:41:52.091Z,46.40
2018-04-06T17:44:24.750Z,47.10
2018-04-06T17:55:53.174Z,48.80
2018-04-06T17:58:23.338Z,48.20
2018-04-06T18:01:00.076Z,49.00
2018-04-06T18:06:52.737Z,52.50
2018-04-06T18:09:23.105Z,53.90
2018-04-06T18:11:52.586Z,53.90
2018-04-06T18:14:22.564Z,52.50
2018-04-06T18:16:52.061Z,52.50
2018-04-06T18:19:21.260Z,52.30
2018-04-06T18:21:52.341Z,51.80
2018-04-06T18:24:26.847Z,52.90
2018-04-06T18:26:57.247Z,53.50
2018-04-06T18:29:26.756Z,52.20
2018-04-06T18:31:58.383Z,52.40
2018-04-06T18:34:30.110Z,51.80
2018-04-06T18:37:08.258Z,52.80
2018-04-06T18:39:38.175Z,51.60
2018-04-06T18:42:23.147Z,54.30
2018-04-06T18:44:53.073Z,53.20
2018-04-06T18:47:22.729Z,53.50
2018-04-06T18:49:52.219Z,53.00
2018-04-06T18:52:31.426Z,54.50
2018-04-06T18:55:00.882Z,54.70
2018-04-06T18:57:42.530Z,54.40
2018-04-06T19:00:11.728Z,54.40
2018-04-06T19:02:42.556Z,56.00
2018-04-06T19:05:20.044Z,56.10
2018-04-06T19:07:49.525Z,54.80
2018-04-06T19:10:22.902Z,56.50
2018-04-06T19:12:52.366Z,56.60
2018-04-06T19:15:25.031Z,56.30
2018-04-06T19:17:54.899Z,56.90
2018-04-06T19:20:27.639Z,56.90
2018-04-06T19:22:57.082Z,56.60
2018-04-06T19:25:28.457Z,56.70
2018-04-06T19:27:57.918Z,56.90
2018-04-06T19:30:31.470Z,56.80
2018-04-06T19:33:01.331Z,57.90
2018-04-06T19:35:34.058Z,57.90
2018-04-06T19:38:03.530Z,55.80
2018-04-06T19:40:34.007Z,58.50
2018-04-06T19:43:03.479Z,57.40
2018-04-06T19:45:34.324Z,58.80
2018-04-06T19:48:03.798Z,58.80
2018-04-06T19:50:39.169Z,56.90
2018-04-06T19:53:08.638Z,55.50
2018-04-06T19:55:38.522Z,56.70
2018-04-06T19:58:08.463Z,56.10
2018-04-06T20:00:37.955Z,56.00
2018-04-06T20:03:07.370Z,57.10
2018-04-06T20:05:36.822Z,56.00
2018-04-06T20:08:06.328Z,57.20
2018-04-06T20:10:35.771Z,58.30
2018-04-06T20:13:23.887Z,57.10
2018-04-06T20:15:53.330Z,57.50
2018-04-06T20:18:22.799Z,56.30
2018-04-06T20:20:52.231Z,57.40
2018-04-06T20:23:22.704Z,56.60
2018-04-06T20:25:52.389Z,56.90
2018-04-06T20:28:22.190Z,56.50
2018-04-06T20:30:51.943Z,56.70
2018-04-06T20:33:22.426Z,57.30
2018-04-06T20:35:51.893Z,59.50
2018-04-06T20:38:28.646Z,59.80
2018-04-06T20:40:58.662Z,59.80
2018-04-06T20:43:28.119Z,59.80
2018-04-06T20:45:57.971Z,57.40
2018-04-06T20:48:27.467Z,57.40
2018-04-06T20:51:01.367Z,58.70
2018-04-06T20:53:30.825Z,58.70
2018-04-06T20:56:00.262Z,58.70
2018-04-06T20:58:30.210Z,58.10
2018-04-06T21:01:22.529Z,58.70
2018-04-06T21:03:52.007Z,60.00
2018-04-06T21:06:27.014Z,61.40
2018-04-06T21:08:56.471Z,58.80
2018-04-06T21:11:38.048Z,59.20
2018-04-06T21:14:07.230Z,58.20
2018-04-06T21:16:37.716Z,58.60
2018-04-06T21:19:07.011Z,58.70
2018-04-06T21:21:42.650Z,58.30
2018-04-06T21:24:12.172Z,57.90
2018-04-06T21:26:42.691Z,59.60
2018-04-06T21:29:12.478Z,59.60
2018-04-06T21:31:49.439Z,59.60
2018-04-06T21:34:18.632Z,60.70
2018-04-06T21:36:47.931Z,60.30
2018-04-06T21:39:17.386Z,59.50
2018-04-06T21:41:52.826Z,59.30
2018-04-06T21:44:23.253Z,60.10
2018-04-06T21:46:53.126Z,60.80
2018-04-06T21:49:22.586Z,60.70
2018-04-06T21:51:54.030Z,59.70
2018-04-06T21:54:23.515Z,60.30
2018-04-06T21:56:53.352Z,61.90
2018-04-06T21:59:22.679Z,61.90
2018-04-06T22:01:59.836Z,60.30
2018-04-06T22:04:29.275Z,59.80
2018-04-06T22:06:58.754Z,59.50
2018-04-06T22:09:28.011Z,59.90
2018-04-06T22:12:20.335Z,60.00
2018-04-06T22:14:50.218Z,59.90
2018-04-06T22:17:19.677Z,59.80
2018-04-06T22:19:49.131Z,59.30
2018-04-06T22:22:38.711Z,59.10
2018-04-06T22:25:08.166Z,59.80
2018-04-06T22:27:45.559Z,60.40
2018-04-06T22:30:15.144Z,61.60
2018-04-06T22:32:45.758Z,60.30
2018-04-06T22:35:15.216Z,60.30
2018-04-06T22:37:47.062Z,60.30
2018-04-06T22:40:16.274Z,60.30
2018-04-06T22:42:59.316Z,59.80
2018-04-06T22:45:29.171Z,62.10
2018-04-06T22:50:59.578Z,60.60
2018-04-06T22:53:29.029Z,60.60
2018-04-06T22:55:58.916Z,60.30
2018-04-06T22:58:28.380Z,60.30
2018-04-06T23:01:14.206Z,61.00
2018-04-06T23:03:43.681Z,61.00
2018-04-06T23:06:13.179Z,62.10
2018-04-06T23:08:42.651Z,62.80
2018-04-06T23:11:12.330Z,61.30
2018-04-06T23:13:41.796Z,61.10
2018-04-06T23:16:11.252Z,61.00
2018-04-06T23:18:40.738Z,61.50
2018-04-06T23:21:10.610Z,62.80
2018-04-06T23:23:40.079Z,62.80
2018-04-06T23:26:21.511Z,62.10
2018-04-06T23:28:51.002Z,62.20
2018-04-06T23:31:20.116Z,62.50
2018-04-06T23:33:49.550Z,63.70
2018-04-06T23:36:32.490Z,63.70
2018-04-06T23:39:01.995Z,62.20
2018-04-06T23:41:34.725Z,62.10
2018-04-06T23:44:04.163Z,62.20
2018-04-06T23:46:45.947Z,61.90
2018-04-06T23:49:15.478Z,62.90
2018-04-06T23:51:56.369Z,62.20
2018-04-06T23:54:25.821Z,63.10
2018-04-06T23:57:13.671Z,63.80
2018-04-06T23:59:43.120Z,63.40
